Time;durP1;ratioP1;P1;durP2;ratioP2;P2;SDS_P1;SDS_P2;PMS_P1;PMS_P2;Temp;Humidity;BMP_temperature;BMP_pressure;BME280_temperature;BME280_humidity;BME280_pressure;Samples;Min_cycle;Max_cycle;Signal;HPM_P1;HPM_P2
2023/08/16 00:01:56;;;;;;;;;;;;;;;23.58;57.98;101953.34;5066589;28;19919;-59
2023/08/16 00:04:21;;;;;;;;;;;;;;;23.30;58.05;101917.63;5065995;28;19996;-54
2023/08/16 00:06:47;;;;;;;;;;;;;;;23.58;58.09;101952.50;5065577;28;19976;-59
2023/08/16 00:09:13;;;;;;;;;;;;;;;23.57;57.75;101953.50;5066372;28;19913;-59
2023/08/16 00:11:38;;;;;;;;;;;;;;;23.56;57.92;101946.41;5064805;28;20746;-59
2023/08/16 00:14:03;;;;;;;;;;;;;;;23.56;57.90;101946.41;5066500;28;19984;-60
2023/08/16 00:16:28;;;;;;;;;;;;;;;23.55;57.94;101950.97;5065812;28;19916;-60
2023/08/16 00:18:54;;;;;;;;;;;;;;;23.55;57.88;101948.25;5066249;28;19920;-60
2023/08/16 00:21:19;;;;;;;;;;;;;;;23.54;57.98;101943.88;5065736;28;20031;-59
2023/08/16 00:23:44;;;;;;;;;;;;;;;23.55;58.04;101936.56;5065676;28;19992;-58
2023/08/16 00:26:09;;;;;;;;;;;;;;;23.53;57.75;101942.16;5065623;28;19916;-59
2023/08/16 00:28:35;;;;;;;;;;;;;;;23.53;57.77;101936.72;5065977;28;19927;-59
2023/08/16 00:31:00;;;;;;;;;;;;;;;23.53;57.79;101934.00;5065756;28;20385;-56
2023/08/16 00:33:25;;;;;;;;;;;;;;;23.51;57.92;101927.91;5065369;28;20374;-58
2023/08/16 00:35:51;;;;;;;;;;;;;;;23.51;57.95;101925.19;5097405;28;19917;-58
2023/08/16 00:38:16;;;;;;;;;;;;;;;23.51;57.76;101933.34;5065757;28;19912;-58
2023/08/16 00:40:46;;;;;;;;;;;;;;;23.51;57.88;101937.94;5095416;28;19917;-57
2023/08/16 00:43:11;;;;;;;;;;;;;;;23.50;57.75;101937.09;5065373;28;19923;-58
2023/08/16 00:45:36;;;;;;;;;;;;;;;23.50;57.98;101947.09;5065760;28;19967;-58
2023/08/16 00:48:02;;;;;;;;;;;;;;;23.49;57.72;101943.53;5065711;28;19921;-59
2023/08/16 00:50:27;;;;;;;;;;;;;;;23.49;57.78;101948.09;5064660;28;19956;-59
2023/08/16 00:52:52;;;;;;;;;;;;;;;23.49;57.74;101953.53;5063403;28;19920;-59
2023/08/16 00:55:17;;;;;;;;;;;;;;;23.48;57.54;101952.69;5064304;28;19923;-59
2023/08/16 00:57:43;;;;;;;;;;;;;;;23.47;57.78;101950.16;5065265;28;19916;-59
2023/08/16 01:00:08;;;;;;;;;;;;;;;23.47;57.82;101963.72;5063289;28;19924;-59
2023/08/16 01:02:33;;;;;;;;;;;;;;;23.45;57.61;101953.91;5065794;28;19955;-59
2023/08/16 01:04:58;;;;;;;;;;;;;;;23.45;57.82;101956.63;5064357;28;20344;-59
2023/08/16 01:07:24;;;;;;;;;;;;;;;23.45;57.73;101959.31;5064742;28;20451;-59
2023/08/16 01:09:49;;;;;;;;;;;;;;;23.45;57.58;101963.91;5064639;28;19923;-54
2023/08/16 01:12:29;;;;;;;;;;;;;;;23.44;57.52;101973.91;5065485;28;19917;-59
2023/08/16 01:14:55;;;;;;;;;;;;;;;23.44;57.54;101970.34;5064847;28;19917;-61
2023/08/16 01:17:20;;;;;;;;;;;;;;;23.44;57.75;101973.06;5065192;28;19927;-59
2023/08/16 01:19:46;;;;;;;;;;;;;;;23.43;57.66;101965.94;5065035;28;19913;-59
2023/08/16 01:22:30;;;;;;;;;;;;;;;23.43;57.55;101969.50;5063273;28;20316;-59
2023/08/16 01:25:07;;;;;;;;;;;;;;;23.43;57.75;101963.22;5064070;28;19920;-58
2023/08/16 01:27:33;;;;;;;;;;;;;;;23.42;57.54;101972.41;5064539;28;19943;-59
2023/08/16 01:29:58;;;;;;;;;;;;;;;23.41;57.60;101970.72;5063130;28;20362;-59
2023/08/16 01:32:23;;;;;;;;;;;;;;;23.41;57.66;101970.72;5097433;28;20408;-60
2023/08/16 01:34:48;;;;;;;;;;;;;;;23.41;57.50;101982.41;5063422;28;19917;-59
2023/08/16 01:37:13;;;;;;;;;;;;;;;23.40;57.67;101979.84;5063970;28;19970;-59
2023/08/16 01:39:39;;;;;;;;;;;;;;;23.39;57.47;101986.31;5064281;28;20011;-59
2023/08/16 01:42:04;;;;;;;;;;;;;;;23.39;57.44;101994.44;5064656;28;20031;-59
2023/08/16 01:44:29;;;;;;;;;;;;;;;23.39;57.52;102000.72;5064596;28;19917;-55
2023/08/16 01:46:54;;;;;;;;;;;;;;;23.38;57.40;101995.47;5096801;28;19921;-59
2023/08/16 01:49:20;;;;;;;;;;;;;;;23.38;57.28;101998.19;5096733;28;19919;-58
2023/08/16 01:51:45;;;;;;;;;;;;;;;23.37;57.39;101993.78;5063786;28;19923;-59
2023/08/16 01:54:11;;;;;;;;;;;;;;;23.37;57.29;101982.94;5064633;28;19935;-59
2023/08/16 01:56:36;;;;;;;;;;;;;;;23.36;57.57;101992.94;5063037;28;19917;-59
2023/08/16 01:59:01;;;;;;;;;;;;;;;23.36;57.38;101987.50;5064097;28;19916;-59
2023/08/16 02:01:26;;;;;;;;;;;;;;;23.36;57.22;101992.06;5078486;28;19917;-60
2023/08/16 02:03:53;;;;;;;;;;;;;;;23.35;57.43;101993.94;5064201;28;19924;-59
2023/08/16 02:06:18;;;;;;;;;;;;;;;23.34;57.25;101992.25;5061820;28;19966;-59
2023/08/16 02:08:44;;;;;;;;;;;;;;;23.34;57.46;101991.41;5063420;28;19917;-58
2023/08/16 02:11:09;;;;;;;;;;;;;;;23.33;57.42;101982.41;5063815;28;19955;-59
2023/08/16 02:13:34;;;;;;;;;;;;;;;23.33;57.51;101976.16;5064407;28;20289;-59
2023/08/16 02:16:00;;;;;;;;;;;;;;;23.32;57.26;101974.44;5063669;28;20357;-61
2023/08/16 02:18:25;;;;;;;;;;;;;;;23.33;57.36;101984.28;5063842;28;19913;-59
2023/08/16 02:20:51;;;;;;;;;;;;;;;23.32;57.37;101982.56;5063216;28;19970;-59
2023/08/16 02:23:16;;;;;;;;;;;;;;;23.31;57.36;101984.44;5063851;28;19921;-59
2023/08/16 02:25:43;;;;;;;;;;;;;;;23.31;57.20;101983.59;5063698;28;19917;-59
2023/08/16 02:28:08;;;;;;;;;;;;;;;23.30;57.42;101988.19;5063626;28;19932;-59
2023/08/16 02:30:33;;;;;;;;;;;;;;;23.30;57.32;101990.91;5063313;28;19917;-60
2023/08/16 02:32:58;;;;;;;;;;;;;;;23.29;57.28;101991.91;5064033;28;19962;-59
2023/08/16 02:35:24;;;;;;;;;;;;;;;23.30;57.15;101990.06;5063188;28;19913;-60
2023/08/16 02:37:49;;;;;;;;;;;;;;;23.29;57.19;101981.06;5062259;28;19923;-60
2023/08/16 02:40:14;;;;;;;;;;;;;;;23.28;57.17;101989.34;5063289;28;19920;-58
2023/08/16 02:42:39;;;;;;;;;;;;;;;23.27;57.16;101988.50;5062452;28;19917;-59
2023/08/16 02:45:05;;;;;;;;;;;;;;;23.27;57.04;101976.81;5063555;28;19921;-60
2023/08/16 02:47:30;;;;;;;;;;;;;;;23.27;57.01;101976.81;5063506;28;19916;-57
2023/08/16 02:49:56;;;;;;;;;;;;;;;23.27;57.04;101976.81;5063472;28;19921;-59
2023/08/16 02:52:21;;;;;;;;;;;;;;;23.25;57.15;101977.00;5095504;28;19921;-58
2023/08/16 02:54:46;;;;;;;;;;;;;;;23.25;57.06;101976.16;5063529;28;19943;-59
2023/08/16 02:57:13;;;;;;;;;;;;;;;23.25;57.04;101981.59;5063377;28;19963;-59
2023/08/16 02:59:41;;;;;;;;;;;;;;;23.24;56.99;101980.75;5062402;28;19963;-59
2023/08/16 03:02:07;;;;;;;;;;;;;;;23.24;57.13;101990.75;5063840;28;19916;-58
2023/08/16 03:04:32;;;;;;;;;;;;;;;23.23;57.23;101984.44;5063019;28;20341;-60
2023/08/16 03:06:57;;;;;;;;;;;;;;;23.23;56.92;101983.59;5062946;28;20281;-59
2023/08/16 03:09:22;;;;;;;;;;;;;;;23.21;56.80;101986.50;5062942;28;20266;-59
2023/08/16 03:11:49;;;;;;;;;;;;;;;23.21;57.07;101972.94;5063184;28;19921;-58
2023/08/16 03:14:14;;;;;;;;;;;;;;;23.21;56.77;101972.94;5064997;28;19952;-60
2023/08/16 03:16:39;;;;;;;;;;;;;;;23.21;57.08;101970.22;5066598;28;19939;-60
2023/08/16 03:19:05;;;;;;;;;;;;;;;23.19;56.94;101975.84;5067507;28;19913;-59
2023/08/16 03:21:30;;;;;;;;;;;;;;;23.19;57.05;101983.97;5066784;28;20344;-54
2023/08/16 03:23:55;;;;;;;;;;;;;;;23.18;57.00;101995.81;5066929;28;19913;-60
2023/08/16 03:26:20;;;;;;;;;;;;;;;23.18;57.14;102003.13;5066439;28;19955;-59
2023/08/16 03:28:46;;;;;;;;;;;;;;;23.17;56.85;101998.72;5067038;28;19920;-59
2023/08/16 03:31:11;;;;;;;;;;;;;;;23.17;56.82;101996.84;5066927;28;19921;-59
2023/08/16 03:33:36;;;;;;;;;;;;;;;23.17;57.08;101994.13;5066875;28;19931;-53
2023/08/16 03:36:01;;;;;;;;;;;;;;;23.16;56.92;102000.59;5066494;28;19913;-60
2023/08/16 03:38:27;;;;;;;;;;;;;;;23.15;56.77;101993.47;5066719;28;19916;-60
2023/08/16 03:40:52;;;;;;;;;;;;;;;23.14;56.70;101988.19;5066766;28;19923;-59
2023/08/16 03:43:17;;;;;;;;;;;;;;;23.14;56.71;101991.75;5066462;28;19921;-59
2023/08/16 03:45:42;;;;;;;;;;;;;;;23.13;56.87;102006.34;5066794;28;19916;-59
2023/08/16 03:48:07;;;;;;;;;;;;;;;23.14;56.85;102007.19;5066861;28;19974;-59
2023/08/16 03:50:33;;;;;;;;;;;;;;;23.12;56.95;102012.78;5066494;28;19917;-59
2023/08/16 03:52:58;;;;;;;;;;;;;;;23.13;56.88;102013.63;5065760;28;19989;-60
2023/08/16 03:55:23;;;;;;;;;;;;;;;23.12;56.95;102014.66;5066725;28;19929;-59
2023/08/16 03:57:48;;;;;;;;;;;;;;;23.11;56.74;102019.25;5066284;28;19970;-59
2023/08/16 04:00:15;;;;;;;;;;;;;;;23.11;56.67;102011.09;5066422;28;19913;-58
2023/08/16 04:02:41;;;;;;;;;;;;;;;23.10;56.91;102012.09;5066710;28;19917;-59
2023/08/16 04:05:10;;;;;;;;;;;;;;;23.12;57.09;102020.09;5065429;28;19939;-59
2023/08/16 04:07:35;;;;;;;;;;;;;;;23.11;56.95;102021.97;5065846;28;19917;-59
2023/08/16 04:10:00;;;;;;;;;;;;;;;23.10;57.07;102012.09;5065966;28;19925;-59
2023/08/16 04:12:25;;;;;;;;;;;;;;;23.10;57.25;102014.81;5065996;28;19931;-59
2023/08/16 04:14:50;;;;;;;;;;;;;;;23.10;57.31;102022.94;5066355;28;19913;-59
2023/08/16 04:17:16;;;;;;;;;;;;;;;23.11;57.25;102040.94;5069002;28;20293;-56
2023/08/16 04:19:41;;;;;;;;;;;;;;;23.10;57.20;102039.22;5073218;28;20372;-56
2023/08/16 04:22:06;;;;;;;;;;;;;;;23.11;57.15;102031.97;5065435;28;19924;-59
2023/08/16 04:24:33;;;;;;;;;;;;;;;23.11;57.34;102040.09;5064241;28;20306;-57
2023/08/16 04:26:58;;;;;;;;;;;;;;;23.11;57.42;102043.66;5065894;28;20679;-59
2023/08/16 04:29:24;;;;;;;;;;;;;;;23.11;57.28;102038.22;5066544;28;19917;-56
2023/08/16 04:31:49;;;;;;;;;;;;;;;23.11;57.45;102042.81;5065860;28;20358;-59
2023/08/16 04:34:15;;;;;;;;;;;;;;;23.12;57.56;102041.78;5098287;28;19935;-60
2023/08/16 04:36:40;;;;;;;;;;;;;;;23.10;57.38;102041.94;5064728;28;19917;-58
2023/08/16 04:39:05;;;;;;;;;;;;;;;23.11;57.55;102046.38;5066015;28;19923;-60
2023/08/16 04:41:30;;;;;;;;;;;;;;;23.10;57.40;102036.50;5065177;28;19923;-60
2023/08/16 04:43:55;;;;;;;;;;;;;;;23.10;57.66;102041.09;5066051;28;19912;-56
2023/08/16 04:46:21;;;;;;;;;;;;;;;23.09;57.69;102037.53;5063108;28;19916;-59
2023/08/16 04:48:46;;;;;;;;;;;;;;;23.10;57.66;102041.09;5065681;28;20035;-60
2023/08/16 04:51:11;;;;;;;;;;;;;;;23.09;57.57;102040.25;5065579;28;19917;-59
2023/08/16 04:53:37;;;;;;;;;;;;;;;23.10;57.82;102049.22;5065109;28;19916;-60
2023/08/16 04:56:02;;;;;;;;;;;;;;;23.09;57.85;102047.53;5065075;28;19916;-60
2023/08/16 04:58:27;;;;;;;;;;;;;;;23.08;57.82;102041.28;5065064;28;19924;-59
2023/08/16 05:00:52;;;;;;;;;;;;;;;23.09;57.86;102051.09;5065161;28;19916;-58
2023/08/16 05:03:17;;;;;;;;;;;;;;;23.09;57.90;102050.25;5065784;28;19927;-55
2023/08/16 05:05:43;;;;;;;;;;;;;;;23.08;57.97;102054.84;5063863;28;19919;-60
2023/08/16 05:08:08;;;;;;;;;;;;;;;23.08;57.99;102062.97;5056860;28;19925;-59
2023/08/16 05:10:33;;;;;;;;;;;;;;;23.08;57.99;102067.56;5065066;28;19916;-60
2023/08/16 05:12:58;;;;;;;;;;;;;;;23.09;58.08;102071.97;5065026;28;19921;-59
2023/08/16 05:15:24;;;;;;;;;;;;;;;23.09;57.94;102080.09;5064913;28;19913;-60
2023/08/16 05:17:49;;;;;;;;;;;;;;;23.09;57.91;102078.22;5063087;28;20374;-59
2023/08/16 05:20:14;;;;;;;;;;;;;;;23.08;57.86;102073.81;5064773;28;19913;-60
2023/08/16 05:22:39;;;;;;;;;;;;;;;23.09;58.00;102066.53;5064606;28;19928;-59
2023/08/16 05:25:05;;;;;;;;;;;;;;;23.08;57.96;102060.25;5064925;28;19921;-59
2023/08/16 05:27:31;;;;;;;;;;;;;;;23.09;57.77;102058.41;5065182;28;19913;-60
2023/08/16 05:29:56;;;;;;;;;;;;;;;23.08;57.71;102056.72;5064930;28;19920;-59
2023/08/16 05:32:22;;;;;;;;;;;;;;;23.08;57.61;102062.97;5065190;28;19923;-59
2023/08/16 05:34:47;;;;;;;;;;;;;;;23.08;57.73;102079.25;5096386;28;19984;-58
2023/08/16 05:37:12;;;;;;;;;;;;;;;23.08;57.97;102087.38;5064436;28;19913;-60
2023/08/16 05:39:38;;;;;;;;;;;;;;;23.09;57.67;102088.22;5064771;28;19992;-59
2023/08/16 05:42:03;;;;;;;;;;;;;;;23.07;57.65;102090.28;5065037;28;20270;-60
2023/08/16 05:44:28;;;;;;;;;;;;;;;23.07;57.50;102101.13;5065007;28;20012;-59
2023/08/16 05:46:53;;;;;;;;;;;;;;;23.07;57.75;102106.56;5064285;28;20339;-59
2023/08/16 05:49:19;;;;;;;;;;;;;;;23.07;57.36;102101.13;5064596;28;19913;-56
2023/08/16 05:51:44;;;;;;;;;;;;;;;23.06;57.63;102100.25;5063903;28;19917;-58
2023/08/16 05:54:09;;;;;;;;;;;;;;;23.06;57.53;102102.13;5064711;28;19944;-60
2023/08/16 05:56:34;;;;;;;;;;;;;;;23.05;57.44;102095.84;5063422;28;19944;-59
2023/08/16 05:58:59;;;;;;;;;;;;;;;23.06;57.40;102099.41;5064660;28;20385;-60
2023/08/16 06:01:25;;;;;;;;;;;;;;;23.06;57.29;102099.41;5064109;28;19924;-59
2023/08/16 06:03:50;;;;;;;;;;;;;;;23.05;57.35;102100.44;5064306;28;19912;-60
2023/08/16 06:06:15;;;;;;;;;;;;;;;23.04;57.51;102105.00;5063760;28;19912;-60
2023/08/16 06:08:40;;;;;;;;;;;;;;;23.05;57.44;102108.56;5063556;28;19919;-60
2023/08/16 06:11:06;;;;;;;;;;;;;;;23.05;57.32;102100.44;5064067;28;19917;-60
2023/08/16 06:13:31;;;;;;;;;;;;;;;23.05;57.13;102097.72;5064002;28;19913;-60
2023/08/16 06:15:56;;;;;;;;;;;;;;;23.06;57.28;102099.41;5063673;28;19913;-56
2023/08/16 06:18:22;;;;;;;;;;;;;;;23.06;57.00;102099.41;5064050;28;19913;-61
2023/08/16 06:20:47;;;;;;;;;;;;;;;23.04;57.05;102094.16;5064020;28;19913;-60
2023/08/16 06:23:12;;;;;;;;;;;;;;;23.05;57.07;102101.28;5063539;28;19920;-61
2023/08/16 06:25:37;;;;;;;;;;;;;;;23.04;57.24;102096.88;5062384;28;19928;-60
2023/08/16 06:28:03;;;;;;;;;;;;;;;23.03;57.32;102089.75;5063516;28;19916;-61
2023/08/16 06:30:28;;;;;;;;;;;;;;;23.04;57.06;102098.75;5063793;28;19921;-61
2023/08/16 06:32:53;;;;;;;;;;;;;;;23.04;57.12;102094.16;5063926;28;19916;-61
2023/08/16 06:35:18;;;;;;;;;;;;;;;23.06;56.90;102102.97;5062856;28;19939;-48
2023/08/16 06:37:46;;;;;;;;;;;;;;;23.05;56.43;102098.56;5062952;28;19917;-52
2023/08/16 06:40:11;;;;;;;;;;;;;;;23.06;56.42;102102.13;5062531;28;19998;-47
2023/08/16 06:42:36;;;;;;;;;;;;;;;23.05;56.41;102097.72;5063974;28;20336;-51
2023/08/16 06:45:02;;;;;;;;;;;;;;;23.05;56.59;102104.00;5063060;28;19959;-49
2023/08/16 06:47:27;;;;;;;;;;;;;;;23.04;56.64;102102.31;5058028;28;19939;-49
2023/08/16 06:49:52;;;;;;;;;;;;;;;23.05;56.62;102111.28;5062178;28;20007;-48
2023/08/16 06:52:18;;;;;;;;;;;;;;;23.04;56.72;102102.31;5062640;28;19964;-50
2023/08/16 06:54:43;;;;;;;;;;;;;;;23.05;56.50;102112.13;5063146;28;20677;-47
2023/08/16 06:57:08;;;;;;;;;;;;;;;23.05;56.53;102111.28;5061467;28;19916;-49
2023/08/16 06:59:35;;;;;;;;;;;;;;;23.04;56.79;102120.44;5064640;28;19935;-48
2023/08/16 07:02:00;;;;;;;;;;;;;;;23.05;56.79;102119.41;5061385;28;19917;-48
2023/08/16 07:04:26;;;;;;;;;;;;;;;23.04;56.74;102117.72;5064885;28;19960;-46
2023/08/16 07:06:51;;;;;;;;;;;;;;;23.04;56.60;102121.28;5062305;28;19967;-48
2023/08/16 07:09:16;;;;;;;;;;;;;;;23.03;56.93;102121.47;5063599;28;19924;-47
2023/08/16 07:11:42;;;;;;;;;;;;;;;23.04;56.85;102124.00;5063400;28;19921;-46
2023/08/16 07:14:07;;;;;;;;;;;;;;;23.03;57.00;102114.19;5064732;28;19928;-47
2023/08/16 07:16:33;;;;;;;;;;;;;;;23.03;56.98;102116.03;5062856;28;19917;-50
2023/08/16 07:18:58;;;;;;;;;;;;;;;23.03;56.85;102114.19;5065411;28;19924;-46
2023/08/16 07:21:25;;;;;;;;;;;;;;;23.03;56.77;102113.34;5062689;28;19912;-46
2023/08/16 07:23:50;;;;;;;;;;;;;;;23.03;57.00;102107.91;5060317;28;19931;-49
2023/08/16 07:26:16;;;;;;;;;;;;;;;23.03;56.89;102121.47;5062241;28;19917;-47
2023/08/16 07:28:41;;;;;;;;;;;;;;;23.03;57.14;102116.88;5059346;28;19917;-47
2023/08/16 07:31:06;;;;;;;;;;;;;;;23.03;56.99;102124.19;5062945;28;19917;-46
2023/08/16 07:33:32;;;;;;;;;;;;;;;23.02;56.76;102120.59;5063682;28;19920;-46
2023/08/16 07:36:01;;;;;;;;;;;;;;;23.02;57.01;102126.00;5062286;28;20289;-47
2023/08/16 07:38:26;;;;;;;;;;;;;;;23.02;56.95;102131.44;5062571;28;19919;-48
2023/08/16 07:40:51;;;;;;;;;;;;;;;23.03;56.93;102126.91;5063129;28;19913;-47
2023/08/16 07:43:16;;;;;;;;;;;;;;;23.03;56.93;102135.03;5063526;28;20400;-45
2023/08/16 07:45:42;;;;;;;;;;;;;;;23.01;57.21;102127.03;5062452;28;20396;-46
2023/08/16 07:48:07;;;;;;;;;;;;;;;23.03;56.95;102141.31;5063487;28;19916;-48
2023/08/16 07:50:32;;;;;;;;;;;;;;;23.02;57.09;102139.56;5062803;28;19938;-47
2023/08/16 07:52:57;;;;;;;;;;;;;;;23.03;57.07;102135.03;5062157;28;20378;-45
2023/08/16 07:55:23;;;;;;;;;;;;;;;23.03;57.09;102148.59;5062527;28;20289;-48
2023/08/16 07:57:49;;;;;;;;;;;;;;;23.03;56.89;102144.00;5063014;28;19979;-47
2023/08/16 08:00:14;;;;;;;;;;;;;;;23.04;56.91;102147.56;5064212;28;19976;-51
2023/08/16 08:02:40;;;;;;;;;;;;;;;23.03;57.13;102149.44;5066698;28;19913;-50
2023/08/16 08:05:05;;;;;;;;;;;;;;;23.03;56.79;102149.44;5065982;28;19917;-51
2023/08/16 08:07:30;;;;;;;;;;;;;;;23.04;57.06;102147.56;5065816;28;19960;-51
2023/08/16 08:09:57;;;;;;;;;;;;;;;23.04;56.80;102150.28;5066063;28;20472;-52
2023/08/16 08:12:22;;;;;;;;;;;;;;;23.04;56.88;102156.56;5066890;28;19948;-52
2023/08/16 08:14:47;;;;;;;;;;;;;;;23.04;56.89;102153.00;5065997;28;19992;-50
2023/08/16 08:17:13;;;;;;;;;;;;;;;23.03;57.10;102146.72;5066533;28;20003;-51
2023/08/16 08:19:38;;;;;;;;;;;;;;;23.04;56.85;102150.28;5066132;28;19920;-52
2023/08/16 08:22:03;;;;;;;;;;;;;;;23.02;56.90;102136.88;5065740;28;20015;-51
2023/08/16 08:24:28;;;;;;;;;;;;;;;23.04;56.73;102155.72;5065509;28;19943;-51
2023/08/16 08:26:54;;;;;;;;;;;;;;;23.03;56.90;102143.16;5065717;28;19962;-50
2023/08/16 08:29:19;;;;;;;;;;;;;;;23.02;56.93;102145.00;5066299;28;20037;-49
2023/08/16 08:31:44;;;;;;;;;;;;;;;23.02;56.93;102155.00;5065609;28;19917;-48
2023/08/16 08:34:10;;;;;;;;;;;;;;;23.02;56.89;102153.13;5065640;28;19919;-48
2023/08/16 08:36:35;;;;;;;;;;;;;;;23.03;57.05;102151.31;5065933;28;19913;-49
2023/08/16 08:39:01;;;;;;;;;;;;;;;23.01;56.85;102154.16;5065846;28;19916;-50
2023/08/16 08:41:26;;;;;;;;;;;;;;;23.02;57.22;102157.72;5065344;28;19920;-47
2023/08/16 08:43:51;;;;;;;;;;;;;;;23.02;56.96;102158.56;5066230;28;19916;-49
2023/08/16 08:46:17;;;;;;;;;;;;;;;23.01;56.99;102156.88;5064575;28;19917;-47
2023/08/16 08:48:42;;;;;;;;;;;;;;;23.01;56.96;102156.88;5065647;28;19984;-51
2023/08/16 08:51:07;;;;;;;;;;;;;;;23.01;57.21;102156.88;5065019;28;19921;-51
2023/08/16 08:53:32;;;;;;;;;;;;;;;23.01;56.94;102153.31;5097688;28;19920;-50
2023/08/16 08:56:02;;;;;;;;;;;;;;;23.01;56.87;102156.88;5065152;28;19917;-47
2023/08/16 08:58:27;;;;;;;;;;;;;;;23.02;56.84;102157.72;5065913;28;20469;-50
2023/08/16 09:00:52;;;;;;;;;;;;;;;23.02;56.78;102157.72;5063705;28;20431;-52
2023/08/16 09:03:18;;;;;;;;;;;;;;;23.02;56.82;102160.44;5064430;28;19917;-54
2023/08/16 09:05:51;;;;;;;;;;;;;;;23.01;56.96;102158.75;5064913;28;19913;-47
2023/08/16 09:08:16;;;;;;;;;;;;;;;23.02;57.05;102157.72;5063996;28;19944;-49
2023/08/16 09:10:42;;;;;;;;;;;;;;;23.02;57.05;102165.84;5064760;28;19932;-48
2023/08/16 09:13:09;;;;;;;;;;;;;;;23.02;56.97;102171.28;5065393;28;19920;-49
2023/08/16 09:15:35;;;;;;;;;;;;;;;23.01;57.01;102170.44;5064971;28;19920;-51
2023/08/16 09:18:13;;;;;;;;;;;;;;;23.02;56.96;102179.41;5065096;28;19913;-49
2023/08/16 09:20:38;;;;;;;;;;;;;;;23.01;56.84;102170.44;5064971;28;19921;-49
2023/08/16 09:23:04;;;;;;;;;;;;;;;23.02;57.05;102166.72;5064850;28;19921;-47
2023/08/16 09:25:29;;;;;;;;;;;;;;;23.02;57.07;102164.00;5064565;28;20230;-49
2023/08/16 09:27:54;;;;;;;;;;;;;;;23.02;56.99;102168.56;5064985;28;19940;-50
2023/08/16 09:30:20;;;;;;;;;;;;;;;23.02;57.19;102166.72;5064969;28;20023;-51
2023/08/16 09:32:45;;;;;;;;;;;;;;;23.02;57.00;102166.72;5065178;28;19971;-48
2023/08/16 09:35:14;;;;;;;;;;;;;;;23.02;57.12;102158.56;5064202;28;20438;-49
2023/08/16 09:37:39;;;;;;;;;;;;;;;23.02;57.24;102157.72;5096462;28;19921;-47
2023/08/16 09:40:06;;;;;;;;;;;;;;;23.03;57.17;102156.72;5096602;28;19917;-48
2023/08/16 09:42:32;;;;;;;;;;;;;;;23.03;57.16;102149.44;5065060;28;20579;-48
2023/08/16 09:44:57;;;;;;;;;;;;;;;23.03;57.33;102154.88;5096997;28;19919;-51
2023/08/16 09:47:23;;;;;;;;;;;;;;;23.03;57.11;102154.03;5064752;28;19912;-52
2023/08/16 09:49:49;;;;;;;;;;;;;;;23.03;57.24;102154.88;5062788;28;19928;-48
2023/08/16 09:52:14;;;;;;;;;;;;;;;23.05;57.21;102151.97;5064269;28;19912;-50
2023/08/16 09:54:40;;;;;;;;;;;;;;;23.04;57.33;102153.84;5097013;28;19921;-52
2023/08/16 09:57:05;;;;;;;;;;;;;;;23.04;57.29;102145.69;5064211;28;19968;-51
2023/08/16 09:59:30;;;;;;;;;;;;;;;23.05;57.13;102160.13;5096523;28;19920;-47
2023/08/16 10:01:56;;;;;;;;;;;;;;;23.05;57.25;102160.13;5064427;28;19920;-49
2023/08/16 10:04:21;;;;;;;;;;;;;;;23.06;57.40;102154.50;5064460;28;19913;-50
2023/08/16 10:06:47;;;;;;;;;;;;;;;23.05;57.11;102152.81;5050542;28;19974;-48
2023/08/16 10:09:12;;;;;;;;;;;;;;;23.07;57.30;102147.25;5096131;28;19913;-47
2023/08/16 10:11:38;;;;;;;;;;;;;;;23.08;57.22;102143.50;5062982;28;19917;-50
2023/08/16 10:14:06;;;;;;;;;;;;;;;23.07;57.05;102139.94;5095623;28;19917;-52
2023/08/16 10:16:31;;;;;;;;;;;;;;;23.08;57.16;102141.66;5063176;28;20034;-51
2023/08/16 10:18:56;;;;;;;;;;;;;;;23.09;57.27;102146.06;5064360;28;20365;-48
2023/08/16 10:21:22;;;;;;;;;;;;;;;23.10;57.19;102144.19;5062425;28;20606;-47
2023/08/16 10:23:47;;;;;;;;;;;;;;;23.10;57.07;102145.03;5061829;28;19916;-50
2023/08/16 10:26:13;;;;;;;;;;;;;;;23.11;57.03;102143.19;5063749;28;19917;-50
2023/08/16 10:28:39;;;;;;;;;;;;;;;23.10;56.93;102139.59;5063738;28;19999;-48
2023/08/16 10:31:04;;;;;;;;;;;;;;;23.11;57.09;102141.31;5062486;28;20262;-50
2023/08/16 10:33:33;;;;;;;;;;;;;;;23.13;56.93;102144.69;5064109;28;19919;-50
2023/08/16 10:35:59;;;;;;;;;;;;;;;23.14;56.59;102135.53;5095445;28;19913;-49
2023/08/16 10:38:33;;;;;;;;;;;;;;;23.15;56.34;102142.69;5062085;28;19917;-47
2023/08/16 10:40:59;;;;;;;;;;;;;;;23.15;56.77;102137.25;5063760;28;19917;-50
2023/08/16 10:43:31;;;;;;;;;;;;;;;23.16;56.79;102138.09;5064015;28;20262;-47
2023/08/16 10:45:56;;;;;;;;;;;;;;;23.15;56.87;102136.38;5062311;28;19927;-49
2023/08/16 10:48:21;;;;;;;;;;;;;;;23.15;56.74;102134.53;5063873;28;20301;-48
2023/08/16 10:50:54;;;;;;;;;;;;;;;23.15;56.86;102141.81;5063571;28;19921;-46
2023/08/16 10:53:19;;;;;;;;;;;;;;;23.15;57.03;102136.38;5063460;28;19924;-50
2023/08/16 10:55:55;;;;;;;;;;;;;;;23.15;56.94;102139.09;5063561;28;20007;-48
2023/08/16 10:58:24;;;;;;;;;;;;;;;23.14;56.77;102130.13;5059769;28;19913;-51
2023/08/16 11:00:58;;;;;;;;;;;;;;;23.15;56.98;102128.25;5063514;28;20023;-48
2023/08/16 11:03:30;;;;;;;;;;;;;;;23.14;57.13;102130.13;5060799;28;19913;-50
2023/08/16 11:05:57;;;;;;;;;;;;;;;23.14;56.76;102123.84;5061201;28;20003;-49
2023/08/16 11:08:22;;;;;;;;;;;;;;;23.14;56.94;102134.69;5095385;28;20032;-47
2023/08/16 11:10:47;;;;;;;;;;;;;;;23.13;56.93;102133.84;5096051;28;20412;-47
2023/08/16 11:13:13;;;;;;;;;;;;;;;23.14;56.91;102140.97;5063984;28;19919;-50
2023/08/16 11:15:41;;;;;;;;;;;;;;;23.14;56.99;102129.25;5062849;28;19920;-50
2023/08/16 11:18:06;;;;;;;;;;;;;;;23.14;57.10;102134.69;5063352;28;19923;-48
2023/08/16 11:20:32;;;;;;;;;;;;;;;23.13;57.26;102139.28;5063495;28;20007;-50
2023/08/16 11:23:00;;;;;;;;;;;;;;;23.15;57.22;102147.22;5062968;28;19942;-49
2023/08/16 11:25:34;;;;;;;;;;;;;;;23.14;57.19;102150.97;5062886;28;19917;-49
2023/08/16 11:28:05;;;;;;;;;;;;;;;23.13;57.22;102152.84;5063351;28;19921;-49
2023/08/16 11:30:33;;;;;;;;;;;;;;;23.14;57.31;102148.25;5062946;28;19924;-45
2023/08/16 11:32:59;;;;;;;;;;;;;;;23.14;56.95;102142.84;5063319;28;19921;-48
2023/08/16 11:35:25;;;;;;;;;;;;;;;23.14;57.01;102130.13;5066192;28;19913;-48
2023/08/16 11:37:50;;;;;;;;;;;;;;;23.14;57.24;102135.53;5066786;28;19920;-47
2023/08/16 11:40:21;;;;;;;;;;;;;;;23.15;57.18;102133.66;5067018;28;19967;-44
2023/08/16 11:42:47;;;;;;;;;;;;;;;23.14;57.17;102124.69;5073868;28;19912;-49
2023/08/16 11:45:20;;;;;;;;;;;;;;;23.14;57.28;102130.13;5066766;28;19921;-46
2023/08/16 11:47:48;;;;;;;;;;;;;;;23.14;57.31;102127.41;5067585;28;19913;-47
2023/08/16 11:50:14;;;;;;;;;;;;;;;23.14;57.08;102121.13;5066302;28;19916;-50
2023/08/16 11:52:39;;;;;;;;;;;;;;;23.15;56.98;102128.25;5099235;28;19919;-48
2023/08/16 11:55:05;;;;;;;;;;;;;;;23.15;57.06;102126.41;5106233;28;19961;-47
2023/08/16 11:57:46;;;;;;;;;;;;;;;23.15;57.24;102126.41;5099443;28;19924;-45
2023/08/16 12:00:14;;;;;;;;;;;;;;;23.16;57.21;102119.97;5065120;28;20385;-46
2023/08/16 12:02:41;;;;;;;;;;;;;;;23.17;57.32;102123.50;5066608;28;20389;-46
2023/08/16 12:05:10;;;;;;;;;;;;;;;23.17;57.15;102126.22;5065982;28;19913;-49
2023/08/16 12:07:45;;;;;;;;;;;;;;;23.18;57.39;102117.06;5065218;28;20855;-46
2023/08/16 12:10:20;;;;;;;;;;;;;;;23.18;57.15;102119.78;5097280;28;19966;-45
2023/08/16 12:12:45;;;;;;;;;;;;;;;23.19;57.32;102110.63;5066381;28;19913;-47
2023/08/16 12:15:11;;;;;;;;;;;;;;;23.19;57.25;102111.50;5064988;28;19927;-48
2023/08/16 12:17:36;;;;;;;;;;;;;;;23.20;57.43;102106.91;5066576;28;19917;-47
2023/08/16 12:20:01;;;;;;;;;;;;;;;23.20;57.29;102093.34;5066170;28;19944;-45
2023/08/16 12:22:26;;;;;;;;;;;;;;;23.20;57.51;102101.47;5065943;28;19925;-46
2023/08/16 12:24:52;;;;;;;;;;;;;;;23.21;57.59;102103.16;5065852;28;19948;-46
2023/08/16 12:27:17;;;;;;;;;;;;;;;23.22;57.40;102101.31;5066441;28;19944;-47
2023/08/16 12:29:42;;;;;;;;;;;;;;;23.22;57.22;102099.44;5066139;28;19948;-47